sensor_id;sensor_type;location;lat;lon;timestamp;temperature;humidity
52531;DHT22;38441;52.894;6.040;2022-08-20T00:50:23;19.20;99.90
52531;DHT22;38441;52.894;6.040;2022-08-20T00:52:51;18.90;99.90
52531;DHT22;38441;52.894;6.040;2022-08-20T00:55:20;19.20;99.90
52531;DHT22;38441;52.894;6.040;2022-08-20T00:57:50;19.00;99.90
52531;DHT22;38441;52.894;6.040;2022-08-20T01:00:24;19.50;99.90
52531;DHT22;38441;52.894;6.040;2022-08-20T01:02:50;18.50;99.90
52531;DHT22;38441;52.894;6.040;2022-08-20T01:05:16;21.40;99.90
52531;DHT22;38441;52.894;6.040;2022-08-20T01:07:43;20.20;99.90
52531;DHT22;38441;52.894;6.040;2022-08-20T01:10:11;20.00;99.90
52531;DHT22;38441;52.894;6.040;2022-08-20T01:12:40;19.90;99.90
52531;DHT22;38441;52.894;6.040;2022-08-20T01:15:08;18.90;99.90
52531;DHT22;38441;52.894;6.040;2022-08-20T01:17:41;19.00;99.90
52531;DHT22;38441;52.894;6.040;2022-08-20T01:20:22;20.10;99.90
52531;DHT22;38441;52.894;6.040;2022-08-20T01:23:21;18.80;99.90
52531;DHT22;38441;52.894;6.040;2022-08-20T01:30:59;19.80;99.90
52531;DHT22;38441;52.894;6.040;2022-08-20T01:33:25;18.70;99.90
52531;DHT22;38441;52.894;6.040;2022-08-20T01:35:51;20.70;99.90
52531;DHT22;38441;52.894;6.040;2022-08-20T01:38:17;20.00;99.90
52531;DHT22;38441;52.894;6.040;2022-08-20T01:43:51;18.70;99.90
52531;DHT22;38441;52.894;6.040;2022-08-20T01:46:30;20.20;99.90
52531;DHT22;38441;52.894;6.040;2022-08-20T01:48:58;20.40;99.90
52531;DHT22;38441;52.894;6.040;2022-08-20T01:51:28;19.70;99.90
52531;DHT22;38441;52.894;6.040;2022-08-20T01:53:56;20.30;99.90
52531;DHT22;38441;52.894;6.040;2022-08-20T01:56:27;21.10;99.90
52531;DHT22;38441;52.894;6.040;2022-08-20T01:58:55;20.10;99.90
52531;DHT22;38441;52.894;6.040;2022-08-20T02:01:35;20.60;99.90
52531;DHT22;38441;52.894;6.040;2022-08-20T02:04:03;19.10;99.90
52531;DHT22;38441;52.894;6.040;2022-08-20T02:06:36;18.80;99.90
52531;DHT22;38441;52.894;6.040;2022-08-20T02:09:03;20.40;99.90
52531;DHT22;38441;52.894;6.040;2022-08-20T02:11:30;19.60;99.90
52531;DHT22;38441;52.894;6.040;2022-08-20T02:13:57;19.60;99.90
52531;DHT22;38441;52.894;6.040;2022-08-20T02:16:26;20.50;99.90
52531;DHT22;38441;52.894;6.040;2022-08-20T02:18:55;19.70;99.90
52531;DHT22;38441;52.894;6.040;2022-08-20T02:21:24;18.70;99.90
52531;DHT22;38441;52.894;6.040;2022-08-20T02:23:50;18.40;99.90
52531;DHT22;38441;52.894;6.040;2022-08-20T02:26:16;20.80;99.90
52531;DHT22;38441;52.894;6.040;2022-08-20T02:28:45;19.50;99.90
52531;DHT22;38441;52.894;6.040;2022-08-20T02:31:13;18.50;99.90
52531;DHT22;38441;52.894;6.040;2022-08-20T02:33:38;18.60;99.90
52531;DHT22;38441;52.894;6.040;2022-08-20T02:36:04;18.30;99.90
52531;DHT22;38441;52.894;6.040;2022-08-20T02:38:30;18.30;99.90
52531;DHT22;38441;52.894;6.040;2022-08-20T02:41:00;18.50;99.90
52531;DHT22;38441;52.894;6.040;2022-08-20T02:43:26;19.90;99.90
52531;DHT22;38441;52.894;6.040;2022-08-20T02:45:51;19.10;99.90
52531;DHT22;38441;52.894;6.040;2022-08-20T02:48:18;18.90;99.90
52531;DHT22;38441;52.894;6.040;2022-08-20T02:50:53;18.10;99.90
52531;DHT22;38441;52.894;6.040;2022-08-20T02:53:19;18.20;99.90
52531;DHT22;38441;52.894;6.040;2022-08-20T02:55:45;19.10;99.90
52531;DHT22;38441;52.894;6.040;2022-08-20T02:58:11;19.70;99.90
52531;DHT22;38441;52.894;6.040;2022-08-20T03:00:38;20.00;99.90
52531;DHT22;38441;52.894;6.040;2022-08-20T03:03:07;20.10;99.90
52531;DHT22;38441;52.894;6.040;2022-08-20T03:05:33;18.20;99.90
52531;DHT22;38441;52.894;6.040;2022-08-20T03:07:59;19.10;99.90
52531;DHT22;38441;52.894;6.040;2022-08-20T03:10:33;20.10;99.90
52531;DHT22;38441;52.894;6.040;2022-08-20T03:13:00;18.20;99.90
52531;DHT22;38441;52.894;6.040;2022-08-20T03:15:28;19.20;99.90
52531;DHT22;38441;52.894;6.040;2022-08-20T03:17:54;20.00;99.90
52531;DHT22;38441;52.894;6.040;2022-08-20T03:20:22;19.60;99.90
52531;DHT22;38441;52.894;6.040;2022-08-20T03:22:48;20.20;99.90
52531;DHT22;38441;52.894;6.040;2022-08-20T03:25:14;19.80;99.90
52531;DHT22;38441;52.894;6.040;2022-08-20T03:27:40;20.10;99.90
52531;DHT22;38441;52.894;6.040;2022-08-20T03:30:09;18.10;99.90
52531;DHT22;38441;52.894;6.040;2022-08-20T03:32:36;18.30;99.90
52531;DHT22;38441;52.894;6.040;2022-08-20T03:35:04;19.20;99.90
52531;DHT22;38441;52.894;6.040;2022-08-20T03:37:34;17.90;99.90
52531;DHT22;38441;52.894;6.040;2022-08-20T03:40:03;17.70;99.90
52531;DHT22;38441;52.894;6.040;2022-08-20T03:42:29;17.90;99.90
52531;DHT22;38441;52.894;6.040;2022-08-20T03:44:55;17.70;99.90
52531;DHT22;38441;52.894;6.040;2022-08-20T03:47:21;17.90;99.90
52531;DHT22;38441;52.894;6.040;2022-08-20T03:49:48;17.70;99.90
52531;DHT22;38441;52.894;6.040;2022-08-20T03:52:14;17.90;99.90
52531;DHT22;38441;52.894;6.040;2022-08-20T03:54:42;17.80;99.90
52531;DHT22;38441;52.894;6.040;2022-08-20T03:57:14;17.80;99.90
52531;DHT22;38441;52.894;6.040;2022-08-20T03:59:41;17.80;99.90
52531;DHT22;38441;52.894;6.040;2022-08-20T04:02:07;17.80;99.90
52531;DHT22;38441;52.894;6.040;2022-08-20T04:04:33;17.70;99.90
52531;DHT22;38441;52.894;6.040;2022-08-20T04:06:58;17.40;99.90
52531;DHT22;38441;52.894;6.040;2022-08-20T04:09:24;17.50;99.90
52531;DHT22;38441;52.894;6.040;2022-08-20T04:11:50;17.70;99.90
52531;DHT22;38441;52.894;6.040;2022-08-20T04:14:15;17.50;99.90
52531;DHT22;38441;52.894;6.040;2022-08-20T04:16:41;17.40;99.90
52531;DHT22;38441;52.894;6.040;2022-08-20T04:19:07;17.50;99.90
52531;DHT22;38441;52.894;6.040;2022-08-20T04:21:34;17.50;99.90
52531;DHT22;38441;52.894;6.040;2022-08-20T04:24:01;17.50;99.90
52531;DHT22;38441;52.894;6.040;2022-08-20T04:26:27;17.60;99.90
52531;DHT22;38441;52.894;6.040;2022-08-20T04:28:53;17.40;99.90
52531;DHT22;38441;52.894;6.040;2022-08-20T04:31:20;17.50;99.90
52531;DHT22;38441;52.894;6.040;2022-08-20T04:33:45;17.60;99.90
52531;DHT22;38441;52.894;6.040;2022-08-20T04:36:11;17.40;99.90
52531;DHT22;38441;52.894;6.040;2022-08-20T04:38:38;17.50;99.90
52531;DHT22;38441;52.894;6.040;2022-08-20T04:41:04;17.50;99.90
52531;DHT22;38441;52.894;6.040;2022-08-20T04:43:33;17.50;99.90
52531;DHT22;38441;52.894;6.040;2022-08-20T04:48:27;17.50;99.90
52531;DHT22;38441;52.894;6.040;2022-08-20T04:50:54;17.40;99.90
52531;DHT22;38441;52.894;6.040;2022-08-20T04:53:23;17.30;99.90
52531;DHT22;38441;52.894;6.040;2022-08-20T04:55:50;17.30;99.90
52531;DHT22;38441;52.894;6.040;2022-08-20T04:58:25;17.30;99.90
52531;DHT22;38441;52.894;6.040;2022-08-20T05:01:01;17.20;99.90
52531;DHT22;38441;52.894;6.040;2022-08-20T05:03:28;17.00;99.90
52531;DHT22;38441;52.894;6.040;2022-08-20T05:05:55;17.10;99.90
52531;DHT22;38441;52.894;6.040;2022-08-20T05:08:22;17.10;99.90
52531;DHT22;38441;52.894;6.040;2022-08-20T05:10:49;17.10;99.90
52531;DHT22;38441;52.894;6.040;2022-08-20T05:13:15;17.20;99.90
52531;DHT22;38441;52.894;6.040;2022-08-20T05:15:41;17.00;99.90
52531;DHT22;38441;52.894;6.040;2022-08-20T05:18:10;17.00;99.90
52531;DHT22;38441;52.894;6.040;2022-08-20T05:20:41;17.00;99.90
52531;DHT22;38441;52.894;6.040;2022-08-20T05:23:09;17.00;99.90
52531;DHT22;38441;52.894;6.040;2022-08-20T05:25:36;17.00;99.90
52531;DHT22;38441;52.894;6.040;2022-08-20T05:28:08;16.80;99.90
52531;DHT22;38441;52.894;6.040;2022-08-20T05:30:36;17.10;99.90
52531;DHT22;38441;52.894;6.040;2022-08-20T05:33:04;17.10;99.90
52531;DHT22;38441;52.894;6.040;2022-08-20T05:35:32;17.10;99.90
52531;DHT22;38441;52.894;6.040;2022-08-20T05:37:59;17.00;99.90
52531;DHT22;38441;52.894;6.040;2022-08-20T05:40:26;16.80;99.90
52531;DHT22;38441;52.894;6.040;2022-08-20T05:42:52;17.00;99.90
52531;DHT22;38441;52.894;6.040;2022-08-20T05:45:20;17.00;99.90
52531;DHT22;38441;52.894;6.040;2022-08-20T05:47:46;16.90;99.90
52531;DHT22;38441;52.894;6.040;2022-08-20T05:50:14;17.00;99.90
52531;DHT22;38441;52.894;6.040;2022-08-20T05:52:40;16.90;99.90
52531;DHT22;38441;52.894;6.040;2022-08-20T05:55:11;17.10;99.90
52531;DHT22;38441;52.894;6.040;2022-08-20T05:57:40;17.00;99.90
52531;DHT22;38441;52.894;6.040;2022-08-20T06:00:10;16.90;99.90
52531;DHT22;38441;52.894;6.040;2022-08-20T06:02:36;17.10;99.90
52531;DHT22;38441;52.894;6.040;2022-08-20T06:05:21;16.80;99.90
52531;DHT22;38441;52.894;6.040;2022-08-20T06:07:46;17.00;99.90
52531;DHT22;38441;52.894;6.040;2022-08-20T06:10:12;16.90;99.90
52531;DHT22;38441;52.894;6.040;2022-08-20T06:12:38;16.90;99.90
52531;DHT22;38441;52.894;6.040;2022-08-20T06:15:05;16.90;99.90
52531;DHT22;38441;52.894;6.040;2022-08-20T06:17:31;17.00;99.90
52531;DHT22;38441;52.894;6.040;2022-08-20T06:20:01;17.20;99.90
52531;DHT22;38441;52.894;6.040;2022-08-20T06:22:27;16.90;99.90
52531;DHT22;38441;52.894;6.040;2022-08-20T06:24:53;17.10;99.90
52531;DHT22;38441;52.894;6.040;2022-08-20T06:27:20;17.10;99.90
52531;DHT22;38441;52.894;6.040;2022-08-20T06:29:46;17.00;99.90
52531;DHT22;38441;52.894;6.040;2022-08-20T06:32:12;17.00;99.90
52531;DHT22;38441;52.894;6.040;2022-08-20T06:34:38;17.00;99.90
52531;DHT22;38441;52.894;6.040;2022-08-20T06:37:14;17.10;99.90
52531;DHT22;38441;52.894;6.040;2022-08-20T06:39:40;17.10;99.90
52531;DHT22;38441;52.894;6.040;2022-08-20T06:42:06;17.10;99.90
52531;DHT22;38441;52.894;6.040;2022-08-20T06:44:32;17.00;99.90
52531;DHT22;38441;52.894;6.040;2022-08-20T06:47:01;17.00;99.90
52531;DHT22;38441;52.894;6.040;2022-08-20T06:49:28;17.30;99.90
52531;DHT22;38441;52.894;6.040;2022-08-20T06:51:54;17.20;99.90
52531;DHT22;38441;52.894;6.040;2022-08-20T06:54:19;17.20;99.90
52531;DHT22;38441;52.894;6.040;2022-08-20T06:56:45;17.30;99.90
52531;DHT22;38441;52.894;6.040;2022-08-20T06:59:11;17.50;99.90
52531;DHT22;38441;52.894;6.040;2022-08-20T07:01:36;17.30;99.90
52531;DHT22;38441;52.894;6.040;2022-08-20T07:04:39;17.40;99.90
52531;DHT22;38441;52.894;6.040;2022-08-20T07:07:04;17.60;99.90
52531;DHT22;38441;52.894;6.040;2022-08-20T07:09:30;17.40;99.90
52531;DHT22;38441;52.894;6.040;2022-08-20T07:11:56;17.50;99.90
52531;DHT22;38441;52.894;6.040;2022-08-20T07:14:21;17.60;99.90
52531;DHT22;38441;52.894;6.040;2022-08-20T07:16:47;17.50;99.90
52531;DHT22;38441;52.894;6.040;2022-08-20T07:19:14;17.70;99.90
52531;DHT22;38441;52.894;6.040;2022-08-20T07:21:39;17.80;99.90
52531;DHT22;38441;52.894;6.040;2022-08-20T07:24:05;17.70;99.90
52531;DHT22;38441;52.894;6.040;2022-08-20T07:26:31;17.50;99.90
52531;DHT22;38441;52.894;6.040;2022-08-20T07:28:57;17.70;99.90
52531;DHT22;38441;52.894;6.040;2022-08-20T07:31:23;18.00;99.90
52531;DHT22;38441;52.894;6.040;2022-08-20T07:34:08;18.00;99.90
52531;DHT22;38441;52.894;6.040;2022-08-20T07:36:35;18.00;99.90
52531;DHT22;38441;52.894;6.040;2022-08-20T07:39:01;18.10;99.90
52531;DHT22;38441;52.894;6.040;2022-08-20T07:41:27;18.10;99.90
52531;DHT22;38441;52.894;6.040;2022-08-20T07:43:52;18.10;99.90
52531;DHT22;38441;52.894;6.040;2022-08-20T07:46:19;18.10;99.90
52531;DHT22;38441;52.894;6.040;2022-08-20T07:48:46;18.40;99.90
52531;DHT22;38441;52.894;6.040;2022-08-20T07:51:15;18.40;99.90
52531;DHT22;38441;52.894;6.040;2022-08-20T07:53:42;19.10;99.90
52531;DHT22;38441;52.894;6.040;2022-08-20T07:56:11;18.40;99.90
52531;DHT22;38441;52.894;6.040;2022-08-20T07:58:40;18.40;99.90
52531;DHT22;38441;52.894;6.040;2022-08-20T08:01:06;18.40;99.90
52531;DHT22;38441;52.894;6.040;2022-08-20T08:03:32;18.70;99.90
52531;DHT22;38441;52.894;6.040;2022-08-20T08:05:58;18.90;99.90
52531;DHT22;38441;52.894;6.040;2022-08-20T08:08:26;19.00;99.90
52531;DHT22;38441;52.894;6.040;2022-08-20T08:10:57;18.70;99.90
52531;DHT22;38441;52.894;6.040;2022-08-20T08:13:24;19.00;99.90
52531;DHT22;38441;52.894;6.040;2022-08-20T08:15:54;19.10;99.90
52531;DHT22;38441;52.894;6.040;2022-08-20T08:18:24;19.30;99.90
52531;DHT22;38441;52.894;6.040;2022-08-20T08:20:51;19.10;99.90
52531;DHT22;38441;52.894;6.040;2022-08-20T08:23:19;20.60;99.90
52531;DHT22;38441;52.894;6.040;2022-08-20T08:25:46;20.10;99.90
52531;DHT22;38441;52.894;6.040;2022-08-20T08:28:12;19.70;99.90
52531;DHT22;38441;52.894;6.040;2022-08-20T08:30:42;19.60;99.90
52531;DHT22;38441;52.894;6.040;2022-08-20T08:33:26;19.60;99.90
52531;DHT22;38441;52.894;6.040;2022-08-20T08:35:52;20.30;99.90
52531;DHT22;38441;52.894;6.040;2022-08-20T08:38:19;19.60;99.90
52531;DHT22;38441;52.894;6.040;2022-08-20T08:40:46;20.00;99.90
52531;DHT22;38441;52.894;6.040;2022-08-20T08:43:13;21.90;99.90
52531;DHT22;38441;52.894;6.040;2022-08-20T08:45:44;19.00;99.90
52531;DHT22;38441;52.894;6.040;2022-08-20T08:48:14;20.10;99.90
52531;DHT22;38441;52.894;6.040;2022-08-20T08:50:41;21.20;99.90
52531;DHT22;38441;52.894;6.040;2022-08-20T08:53:17;20.20;99.90
52531;DHT22;38441;52.894;6.040;2022-08-20T08:55:45;20.10;99.90
52531;DHT22;38441;52.894;6.040;2022-08-20T08:58:11;21.10;99.90
52531;DHT22;38441;52.894;6.040;2022-08-20T09:00:37;20.50;99.90
52531;DHT22;38441;52.894;6.040;2022-08-20T09:03:09;22.00;99.90
52531;DHT22;38441;52.894;6.040;2022-08-20T09:05:47;20.30;99.90
52531;DHT22;38441;52.894;6.040;2022-08-20T09:08:16;20.70;99.90
52531;DHT22;38441;52.894;6.040;2022-08-20T09:10:44;20.70;99.90
52531;DHT22;38441;52.894;6.040;2022-08-20T09:13:11;22.20;99.90
52531;DHT22;38441;52.894;6.040;2022-08-20T09:15:36;22.50;99.90
52531;DHT22;38441;52.894;6.040;2022-08-20T09:18:02;23.70;99.90
52531;DHT22;38441;52.894;6.040;2022-08-20T09:20:28;21.10;99.90
52531;DHT22;38441;52.894;6.040;2022-08-20T09:22:54;21.10;99.90
52531;DHT22;38441;52.894;6.040;2022-08-20T09:25:20;21.00;99.90
52531;DHT22;38441;52.894;6.040;2022-08-20T09:27:46;21.30;99.90
52531;DHT22;38441;52.894;6.040;2022-08-20T09:30:13;21.00;99.90
52531;DHT22;38441;52.894;6.040;2022-08-20T09:32:39;21.10;99.90
52531;DHT22;38441;52.894;6.040;2022-08-20T09:35:05;21.10;99.90
52531;DHT22;38441;52.894;6.040;2022-08-20T09:37:32;21.50;99.90
52531;DHT22;38441;52.894;6.040;2022-08-20T09:39:58;21.40;99.90
52531;DHT22;38441;52.894;6.040;2022-08-20T09:45:16;22.30;99.90
52531;DHT22;38441;52.894;6.040;2022-08-20T09:47:42;21.70;99.90
52531;DHT22;38441;52.894;6.040;2022-08-20T09:50:08;23.50;99.90
52531;DHT22;38441;52.894;6.040;2022-08-20T09:52:38;21.90;99.90
52531;DHT22;38441;52.894;6.040;2022-08-20T09:55:30;22.40;99.90
52531;DHT22;38441;52.894;6.040;2022-08-20T09:57:56;22.00;99.90
52531;DHT22;38441;52.894;6.040;2022-08-20T10:00:23;22.10;99.90
52531;DHT22;38441;52.894;6.040;2022-08-20T10:02:49;22.40;99.90
52531;DHT22;38441;52.894;6.040;2022-08-20T10:05:15;22.10;99.90
52531;DHT22;38441;52.894;6.040;2022-08-20T10:07:41;22.60;99.90
52531;DHT22;38441;52.894;6.040;2022-08-20T10:10:10;22.60;99.90
52531;DHT22;38441;52.894;6.040;2022-08-20T10:12:36;24.50;99.90
52531;DHT22;38441;52.894;6.040;2022-08-20T10:44:22;23.30;99.90
52531;DHT22;38441;52.894;6.040;2022-08-20T10:46:48;23.30;99.90
52531;DHT22;38441;52.894;6.040;2022-08-20T10:49:13;23.80;99.90
52531;DHT22;38441;52.894;6.040;2022-08-20T10:51:39;23.30;99.90
52531;DHT22;38441;52.894;6.040;2022-08-20T10:54:05;25.40;99.90
52531;DHT22;38441;52.894;6.040;2022-08-20T10:56:30;24.50;99.90
52531;DHT22;38441;52.894;6.040;2022-08-20T10:58:56;23.50;99.90
52531;DHT22;38441;52.894;6.040;2022-08-20T11:01:22;25.00;99.90
52531;DHT22;38441;52.894;6.040;2022-08-20T11:03:48;22.90;99.90
52531;DHT22;38441;52.894;6.040;2022-08-20T11:06:13;23.10;99.90
52531;DHT22;38441;52.894;6.040;2022-08-20T11:08:39;23.40;99.90
52531;DHT22;38441;52.894;6.040;2022-08-20T11:11:05;23.30;99.90
52531;DHT22;38441;52.894;6.040;2022-08-20T11:13:32;24.20;99.90
52531;DHT22;38441;52.894;6.040;2022-08-20T11:15:58;23.80;99.90
52531;DHT22;38441;52.894;6.040;2022-08-20T11:18:25;23.20;99.90
52531;DHT22;38441;52.894;6.040;2022-08-20T11:20:50;24.30;99.90
52531;DHT22;38441;52.894;6.040;2022-08-20T11:23:16;24.80;99.90
52531;DHT22;38441;52.894;6.040;2022-08-20T11:25:42;24.90;99.90
52531;DHT22;38441;52.894;6.040;2022-08-20T11:28:08;24.70;99.90
52531;DHT22;38441;52.894;6.040;2022-08-20T11:30:35;23.60;99.90
52531;DHT22;38441;52.894;6.040;2022-08-20T11:33:02;24.60;99.90
52531;DHT22;38441;52.894;6.040;2022-08-20T11:35:29;25.90;99.90
52531;DHT22;38441;52.894;6.040;2022-08-20T11:37:56;22.20;99.90
52531;DHT22;38441;52.894;6.040;2022-08-20T11:40:23;24.00;99.90
52531;DHT22;38441;52.894;6.040;2022-08-20T11:42:51;23.30;99.90
52531;DHT22;38441;52.894;6.040;2022-08-20T11:45:17;25.80;99.90
52531;DHT22;38441;52.894;6.040;2022-08-20T11:47:43;23.50;99.90
52531;DHT22;38441;52.894;6.040;2022-08-20T11:50:14;24.90;99.90
52531;DHT22;38441;52.894;6.040;2022-08-20T11:52:40;23.10;99.90
52531;DHT22;38441;52.894;6.040;2022-08-20T11:55:08;25.70;99.90
52531;DHT22;38441;52.894;6.040;2022-08-20T11:57:41;24.60;99.90
52531;DHT22;38441;52.894;6.040;2022-08-20T12:00:10;23.70;99.90
52531;DHT22;38441;52.894;6.040;2022-08-20T12:02:44;24.00;99.90
52531;DHT22;38441;52.894;6.040;2022-08-20T12:05:13;25.40;99.90
52531;DHT22;38441;52.894;6.040;2022-08-20T12:07:39;24.00;99.90
52531;DHT22;38441;52.894;6.040;2022-08-20T12:12:35;23.90;99.90
52531;DHT22;38441;52.894;6.040;2022-08-20T12:15:02;24.10;99.90
52531;DHT22;38441;52.894;6.040;2022-08-20T12:49:47;24.00;99.90
52531;DHT22;38441;52.894;6.040;2022-08-20T12:52:13;24.40;99.90
52531;DHT22;38441;52.894;6.040;2022-08-20T12:54:39;26.40;99.90
52531;DHT22;38441;52.894;6.040;2022-08-20T12:57:05;25.50;99.90
52531;DHT22;38441;52.894;6.040;2022-08-20T12:59:31;23.90;99.90
52531;DHT22;38441;52.894;6.040;2022-08-20T13:01:57;24.30;99.90
52531;DHT22;38441;52.894;6.040;2022-08-20T13:04:23;25.80;99.90
52531;DHT22;38441;52.894;6.040;2022-08-20T13:06:49;23.40;99.90
52531;DHT22;38441;52.894;6.040;2022-08-20T13:09:16;23.70;99.90
52531;DHT22;38441;52.894;6.040;2022-08-20T13:11:42;24.00;99.90
52531;DHT22;38441;52.894;6.040;2022-08-20T13:14:08;26.00;99.90
52531;DHT22;38441;52.894;6.040;2022-08-20T13:16:35;25.20;99.90
52531;DHT22;38441;52.894;6.040;2022-08-20T13:19:00;24.40;99.90
52531;DHT22;38441;52.894;6.040;2022-08-20T13:21:26;26.60;99.90
52531;DHT22;38441;52.894;6.040;2022-08-20T13:23:52;26.20;99.90
52531;DHT22;38441;52.894;6.040;2022-08-20T13:26:18;24.80;99.90
52531;DHT22;38441;52.894;6.040;2022-08-20T13:28:43;27.00;99.90
52531;DHT22;38441;52.894;6.040;2022-08-20T13:31:09;26.40;99.90
52531;DHT22;38441;52.894;6.040;2022-08-20T13:33:34;26.20;99.90
52531;DHT22;38441;52.894;6.040;2022-08-20T13:36:00;23.90;99.90
52531;DHT22;38441;52.894;6.040;2022-08-20T13:38:26;24.70;99.90
52531;DHT22;38441;52.894;6.040;2022-08-20T13:40:52;28.00;99.90
52531;DHT22;38441;52.894;6.040;2022-08-20T13:43:18;26.10;99.90
52531;DHT22;38441;52.894;6.040;2022-08-20T13:45:43;26.30;99.90
52531;DHT22;38441;52.894;6.040;2022-08-20T13:48:10;24.70;99.90
52531;DHT22;38441;52.894;6.040;2022-08-20T13:50:36;27.40;99.90
52531;DHT22;38441;52.894;6.040;2022-08-20T13:53:02;24.80;99.90
52531;DHT22;38441;52.894;6.040;2022-08-20T13:55:28;27.30;99.90
52531;DHT22;38441;52.894;6.040;2022-08-20T13:57:55;27.30;99.90
52531;DHT22;38441;52.894;6.040;2022-08-20T14:00:25;25.10;99.90
52531;DHT22;38441;52.894;6.040;2022-08-20T14:02:51;25.10;99.90
52531;DHT22;38441;52.894;6.040;2022-08-20T14:05:16;26.00;99.90
52531;DHT22;38441;52.894;6.040;2022-08-20T14:07:43;25.10;99.80
52531;DHT22;38441;52.894;6.040;2022-08-20T14:10:13;27.80;99.90
52531;DHT22;38441;52.894;6.040;2022-08-20T14:12:39;25.70;98.60
52531;DHT22;38441;52.894;6.040;2022-08-20T14:15:06;26.20;99.40
52531;DHT22;38441;52.894;6.040;2022-08-20T14:17:38;25.10;97.00
52531;DHT22;38441;52.894;6.040;2022-08-20T14:20:06;26.70;98.30
52531;DHT22;38441;52.894;6.040;2022-08-20T14:22:32;24.90;99.60
52531;DHT22;38441;52.894;6.040;2022-08-20T14:24:58;25.00;99.50
52531;DHT22;38441;52.894;6.040;2022-08-20T14:27:28;26.50;99.90
52531;DHT22;38441;52.894;6.040;2022-08-20T14:29:53;26.50;99.60
52531;DHT22;38441;52.894;6.040;2022-08-20T14:32:19;25.30;98.80
52531;DHT22;38441;52.894;6.040;2022-08-20T14:34:45;27.30;98.90
52531;DHT22;38441;52.894;6.040;2022-08-20T14:37:32;25.00;99.30
52531;DHT22;38441;52.894;6.040;2022-08-20T14:39:59;25.20;97.60
52531;DHT22;38441;52.894;6.040;2022-08-20T14:42:26;26.90;99.60
52531;DHT22;38441;52.894;6.040;2022-08-20T14:44:53;26.50;99.80
52531;DHT22;38441;52.894;6.040;2022-08-20T14:47:25;25.10;98.70
52531;DHT22;38441;52.894;6.040;2022-08-20T14:49:53;26.70;99.00
52531;DHT22;38441;52.894;6.040;2022-08-20T14:52:21;26.90;97.70
52531;DHT22;38441;52.894;6.040;2022-08-20T14:54:49;27.30;96.80
52531;DHT22;38441;52.894;6.040;2022-08-20T14:57:17;26.70;96.80
52531;DHT22;38441;52.894;6.040;2022-08-20T14:59:43;25.00;96.60
52531;DHT22;38441;52.894;6.040;2022-08-20T15:02:11;25.40;96.90
52531;DHT22;38441;52.894;6.040;2022-08-20T15:04:38;26.80;98.20
52531;DHT22;38441;52.894;6.040;2022-08-20T15:07:05;24.80;97.60
52531;DHT22;38441;52.894;6.040;2022-08-20T15:09:34;24.80;97.80
52531;DHT22;38441;52.894;6.040;2022-08-20T15:12:01;25.00;98.40
52531;DHT22;38441;52.894;6.040;2022-08-20T15:14:27;24.80;98.60
52531;DHT22;38441;52.894;6.040;2022-08-20T15:16:54;24.60;98.00
52531;DHT22;38441;52.894;6.040;2022-08-20T15:19:21;26.00;99.00
52531;DHT22;38441;52.894;6.040;2022-08-20T15:21:47;23.50;98.80
52531;DHT22;38441;52.894;6.040;2022-08-20T15:24:14;26.00;98.10
52531;DHT22;38441;52.894;6.040;2022-08-20T15:26:40;24.80;97.20
52531;DHT22;38441;52.894;6.040;2022-08-20T15:29:06;25.00;98.40
52531;DHT22;38441;52.894;6.040;2022-08-20T15:31:31;26.80;99.50
52531;DHT22;38441;52.894;6.040;2022-08-20T15:33:57;27.20;98.90
52531;DHT22;38441;52.894;6.040;2022-08-20T15:36:23;26.90;99.00
52531;DHT22;38441;52.894;6.040;2022-08-20T15:38:49;27.20;98.20
52531;DHT22;38441;52.894;6.040;2022-08-20T15:41:14;25.90;97.70
52531;DHT22;38441;52.894;6.040;2022-08-20T15:43:40;26.30;98.70
52531;DHT22;38441;52.894;6.040;2022-08-20T15:46:06;26.70;99.90
52531;DHT22;38441;52.894;6.040;2022-08-20T15:48:42;23.10;98.30
52531;DHT22;38441;52.894;6.040;2022-08-20T15:51:28;24.60;99.30
52531;DHT22;38441;52.894;6.040;2022-08-20T15:54:05;25.00;97.90
52531;DHT22;38441;52.894;6.040;2022-08-20T15:59:40;24.30;96.70
52531;DHT22;38441;52.894;6.040;2022-08-20T16:04:53;25.80;99.90
52531;DHT22;38441;52.894;6.040;2022-08-20T16:07:33;24.80;99.00
52531;DHT22;38441;52.894;6.040;2022-08-20T16:10:29;25.40;99.10
52531;DHT22;38441;52.894;6.040;2022-08-20T16:13:01;24.60;99.90
52531;DHT22;38441;52.894;6.040;2022-08-20T16:15:31;22.30;99.90
52531;DHT22;38441;52.894;6.040;2022-08-20T16:17:59;21.20;99.90
52531;DHT22;38441;52.894;6.040;2022-08-20T16:20:33;26.00;99.90
52531;DHT22;38441;52.894;6.040;2022-08-20T16:23:00;25.80;99.90
52531;DHT22;38441;52.894;6.040;2022-08-20T16:25:32;24.60;99.90
52531;DHT22;38441;52.894;6.040;2022-08-20T16:28:03;23.50;99.90
52531;DHT22;38441;52.894;6.040;2022-08-20T16:30:37;21.40;99.90
52531;DHT22;38441;52.894;6.040;2022-08-20T16:35:50;23.20;99.90
52531;DHT22;38441;52.894;6.040;2022-08-20T16:38:41;23.10;99.90
52531;DHT22;38441;52.894;6.040;2022-08-20T16:41:14;23.10;99.90
52531;DHT22;38441;52.894;6.040;2022-08-20T16:44:05;22.70;99.90
52531;DHT22;38441;52.894;6.040;2022-08-20T16:46:41;24.00;99.90
52531;DHT22;38441;52.894;6.040;2022-08-20T16:49:16;24.00;99.90
52531;DHT22;38441;52.894;6.040;2022-08-20T16:51:53;22.60;99.90
52531;DHT22;38441;52.894;6.040;2022-08-20T16:54:23;24.40;99.90
52531;DHT22;38441;52.894;6.040;2022-08-20T16:57:03;25.00;99.90
52531;DHT22;38441;52.894;6.040;2022-08-20T16:59:30;24.00;99.90
52531;DHT22;38441;52.894;6.040;2022-08-20T17:02:06;24.70;99.90
52531;DHT22;38441;52.894;6.040;2022-08-20T17:04:32;24.50;99.90
52531;DHT22;38441;52.894;6.040;2022-08-20T17:07:00;22.80;99.90
52531;DHT22;38441;52.894;6.040;2022-08-20T17:09:41;22.90;99.90
52531;DHT22;38441;52.894;6.040;2022-08-20T17:12:27;24.40;99.90
52531;DHT22;38441;52.894;6.040;2022-08-20T17:14:56;24.60;99.90
52531;DHT22;38441;52.894;6.040;2022-08-20T17:19:57;24.50;99.90
52531;DHT22;38441;52.894;6.040;2022-08-20T17:22:25;22.50;99.90
52531;DHT22;38441;52.894;6.040;2022-08-20T17:24:51;24.00;99.90
52531;DHT22;38441;52.894;6.040;2022-08-20T17:27:34;22.10;99.90
52531;DHT22;38441;52.894;6.040;2022-08-20T17:32:59;23.80;99.90
52531;DHT22;38441;52.894;6.040;2022-08-20T17:35:42;25.00;99.90
52531;DHT22;38441;52.894;6.040;2022-08-20T17:41:17;21.00;99.90
52531;DHT22;38441;52.894;6.040;2022-08-20T17:44:26;23.10;99.90
52531;DHT22;38441;52.894;6.040;2022-08-20T17:46:51;23.40;99.90
52531;DHT22;38441;52.894;6.040;2022-08-20T17:49:25;23.10;99.90
52531;DHT22;38441;52.894;6.040;2022-08-20T17:51:53;23.40;99.90
52531;DHT22;38441;52.894;6.040;2022-08-20T17:54:28;21.70;99.90
52531;DHT22;38441;52.894;6.040;2022-08-20T17:57:08;23.40;99.90
52531;DHT22;38441;52.894;6.040;2022-08-20T17:59:49;20.90;99.90
52531;DHT22;38441;52.894;6.040;2022-08-20T18:02:16;21.70;99.90